createdAt,value
2023-05-11T00:00:19.890Z,12.90
2023-05-11T00:02:49.438Z,12.90
2023-05-11T00:05:17.483Z,12.90
2023-05-11T00:07:45.488Z,12.90
2023-05-11T00:10:13.490Z,12.80
2023-05-11T00:12:41.460Z,12.80
2023-05-11T00:15:09.766Z,12.80
2023-05-11T00:17:37.854Z,12.80
2023-05-11T00:20:08.120Z,12.80
2023-05-11T00:22:36.107Z,12.80
2023-05-11T00:25:04.525Z,12.70
2023-05-11T00:27:32.477Z,12.80
2023-05-11T00:30:00.457Z,12.80
2023-05-11T00:32:28.433Z,12.80
2023-05-11T00:34:56.402Z,12.70
2023-05-11T00:37:26.241Z,12.70
2023-05-11T00:39:54.320Z,12.70
2023-05-11T00:42:22.280Z,12.60
2023-05-11T00:44:50.221Z,12.60
2023-05-11T00:47:18.372Z,12.60
2023-05-11T00:49:46.897Z,12.60
2023-05-11T00:52:14.834Z,12.60
2023-05-11T00:54:44.157Z,12.50
2023-05-11T00:57:12.141Z,12.50
2023-05-11T00:59:40.128Z,12.50
2023-05-11T01:02:08.395Z,12.50
2023-05-11T01:04:37.926Z,12.40
2023-05-11T01:07:10.337Z,12.40
2023-05-11T01:09:44.932Z,12.40
2023-05-11T01:12:16.465Z,12.30
2023-05-11T01:14:47.214Z,12.30
2023-05-11T01:17:19.360Z,12.40
2023-05-11T01:19:49.726Z,12.30
2023-05-11T01:22:28.533Z,12.40
2023-05-11T01:25:04.714Z,12.30
2023-05-11T01:27:48.054Z,12.30
2023-05-11T01:30:25.755Z,12.40
2023-05-11T01:32:55.555Z,12.30
2023-05-11T01:35:25.593Z,12.40
2023-05-11T01:37:56.273Z,12.30
2023-05-11T01:40:25.801Z,12.30
2023-05-11T01:42:59.748Z,12.30
2023-05-11T01:45:29.846Z,12.30
2023-05-11T01:47:58.880Z,12.30
2023-05-11T01:50:26.960Z,12.30
2023-05-11T01:52:55.105Z,12.30
2023-05-11T01:55:24.612Z,12.30
2023-05-11T01:57:54.194Z,12.10
2023-05-11T02:00:22.651Z,12.30
2023-05-11T02:02:52.388Z,12.30
2023-05-11T02:05:22.810Z,12.20
2023-05-11T02:07:52.518Z,12.30
2023-05-11T02:10:21.189Z,12.20
2023-05-11T02:12:52.198Z,12.20
2023-05-11T02:15:20.716Z,12.10
2023-05-11T02:17:48.884Z,12.10
2023-05-11T02:20:18.714Z,12.10
2023-05-11T02:22:47.218Z,12.10
2023-05-11T02:25:16.487Z,12.10
2023-05-11T02:27:44.512Z,12.00
2023-05-11T02:30:13.778Z,12.00
2023-05-11T02:32:45.380Z,12.00
2023-05-11T02:35:17.047Z,11.90
2023-05-11T02:37:47.655Z,11.90
2023-05-11T02:40:18.042Z,11.90
2023-05-11T02:42:47.005Z,11.90
2023-05-11T02:45:16.728Z,11.90
2023-05-11T02:47:46.851Z,11.80
2023-05-11T02:50:15.808Z,11.80
2023-05-11T02:52:45.819Z,11.80
2023-05-11T02:55:16.067Z,11.80
2023-05-11T02:57:44.259Z,11.70
2023-05-11T03:00:12.926Z,11.70
2023-05-11T03:02:41.272Z,11.70
2023-05-11T03:05:09.778Z,11.70
2023-05-11T03:07:37.762Z,11.60
2023-05-11T03:10:06.256Z,11.60
2023-05-11T03:12:35.834Z,11.60
2023-05-11T03:15:04.810Z,11.50
2023-05-11T03:17:33.261Z,11.50
2023-05-11T03:20:03.701Z,11.50
2023-05-11T03:22:34.603Z,11.40
2023-05-11T03:25:03.776Z,11.40
2023-05-11T03:27:32.983Z,11.40
2023-05-11T03:30:04.053Z,11.40
2023-05-11T03:32:32.079Z,11.40
2023-05-11T03:35:00.066Z,11.40
2023-05-11T03:37:28.382Z,11.40
2023-05-11T03:39:58.258Z,11.40
2023-05-11T03:42:26.533Z,11.40
2023-05-11T03:44:58.370Z,11.40
2023-05-11T03:47:29.523Z,11.40
2023-05-11T03:49:57.826Z,11.30
2023-05-11T03:52:26.180Z,11.30
2023-05-11T03:54:54.386Z,11.30
2023-05-11T03:57:22.369Z,11.30
2023-05-11T03:59:50.343Z,11.30
2023-05-11T04:02:18.376Z,11.30
2023-05-11T04:04:47.833Z,11.30
2023-05-11T04:07:16.061Z,11.30
2023-05-11T04:09:44.015Z,11.20
2023-05-11T04:12:12.042Z,11.20
2023-05-11T04:14:39.987Z,11.20
2023-05-11T04:17:07.972Z,11.20
2023-05-11T04:19:36.190Z,11.20
2023-05-11T04:22:05.511Z,11.20
2023-05-11T04:24:33.434Z,11.20
2023-05-11T04:27:01.378Z,11.20
2023-05-11T04:29:29.428Z,11.20
2023-05-11T04:31:57.480Z,11.20
2023-05-11T04:34:25.677Z,11.20
2023-05-11T04:36:55.462Z,11.30
2023-05-11T04:39:24.803Z,11.30
2023-05-11T04:41:52.777Z,11.30
2023-05-11T04:44:20.749Z,11.30
2023-05-11T04:46:48.849Z,11.30
2023-05-11T04:49:16.808Z,11.30
2023-05-11T04:51:44.790Z,11.30
2023-05-11T04:54:12.831Z,11.30
2023-05-11T04:56:42.158Z,11.30
2023-05-11T04:59:10.194Z,11.30
2023-05-11T05:01:38.275Z,11.40
2023-05-11T05:04:06.337Z,11.40
2023-05-11T05:06:34.324Z,11.40
2023-05-11T05:09:02.286Z,11.30
2023-05-11T05:11:30.286Z,11.20
2023-05-11T05:13:59.675Z,10.80
2023-05-11T05:16:28.162Z,11.30
2023-05-11T05:18:57.029Z,11.30
2023-05-11T05:21:25.679Z,11.30
2023-05-11T05:23:53.651Z,11.30
2023-05-11T05:26:21.728Z,11.30
2023-05-11T05:28:49.723Z,11.30
2023-05-11T05:31:19.613Z,11.30
2023-05-11T05:33:47.652Z,11.30
2023-05-11T05:36:15.610Z,11.30
2023-05-11T05:38:43.577Z,11.40
2023-05-11T05:41:11.603Z,11.40
2023-05-11T05:43:39.550Z,11.40
2023-05-11T05:46:07.739Z,11.30
2023-05-11T05:48:37.164Z,11.30
2023-05-11T05:51:05.381Z,11.30
2023-05-11T05:53:33.365Z,11.40
2023-05-11T05:56:01.395Z,11.40
2023-05-11T05:58:29.318Z,11.40
2023-05-11T06:00:57.285Z,11.40
2023-05-11T06:03:27.070Z,11.40
2023-05-11T06:05:58.573Z,11.50
2023-05-11T06:08:26.557Z,11.50
2023-05-11T06:10:54.621Z,11.50
2023-05-11T06:13:22.583Z,11.50
2023-05-11T06:15:50.632Z,11.50
2023-05-11T06:18:18.753Z,11.50
2023-05-11T06:20:46.861Z,11.60
2023-05-11T06:23:16.147Z,11.60
2023-05-11T06:25:44.183Z,11.70
2023-05-11T06:28:12.296Z,11.70
2023-05-11T06:30:40.327Z,11.70
2023-05-11T06:33:08.332Z,11.70
2023-05-11T06:35:37.553Z,11.80
2023-05-11T06:38:05.532Z,11.80
2023-05-11T06:40:34.933Z,11.80
2023-05-11T06:43:02.892Z,11.90
2023-05-11T06:45:31.079Z,11.90
2023-05-11T06:47:59.197Z,11.90
2023-05-11T06:50:27.748Z,11.90
2023-05-11T06:52:56.318Z,11.80
2023-05-11T06:55:24.287Z,11.90
2023-05-11T06:57:53.629Z,11.90
2023-05-11T07:00:21.803Z,11.90
2023-05-11T07:02:49.900Z,11.90
2023-05-11T07:05:18.038Z,11.90
2023-05-11T07:07:46.408Z,11.90
2023-05-11T07:10:14.402Z,12.00
2023-05-11T07:12:42.431Z,12.00
2023-05-11T07:15:12.465Z,12.10
2023-05-11T07:17:40.524Z,12.10
2023-05-11T07:20:09.246Z,12.10
2023-05-11T07:22:37.245Z,12.20
2023-05-11T07:25:05.465Z,12.20
2023-05-11T07:27:34.821Z,12.20
2023-05-11T07:30:03.600Z,12.20
2023-05-11T07:32:33.905Z,12.30
2023-05-11T07:35:01.912Z,12.20
2023-05-11T07:37:30.003Z,12.30
2023-05-11T07:39:57.925Z,12.30
2023-05-11T07:42:25.950Z,12.30
2023-05-11T07:44:53.922Z,12.30
2023-05-11T07:47:23.343Z,12.30
2023-05-11T07:49:52.766Z,12.30
2023-05-11T07:52:20.748Z,12.30
2023-05-11T07:54:48.853Z,12.20
2023-05-11T07:57:17.029Z,12.30
2023-05-11T07:59:44.958Z,12.30
2023-05-11T08:02:13.413Z,12.30
2023-05-11T08:04:41.740Z,12.40
2023-05-11T08:07:11.162Z,12.40
2023-05-11T08:09:39.087Z,12.50
2023-05-11T08:12:07.225Z,12.50
2023-05-11T08:14:35.299Z,12.50
2023-05-11T08:17:03.399Z,12.50
2023-05-11T08:19:31.366Z,12.50
2023-05-11T08:21:59.335Z,12.50
2023-05-11T08:24:28.644Z,12.50
2023-05-11T08:26:56.717Z,12.60
2023-05-11T08:29:27.230Z,12.60
2023-05-11T08:31:55.363Z,12.70
2023-05-11T08:34:23.506Z,12.80
2023-05-11T08:36:52.856Z,12.80
2023-05-11T08:39:38.576Z,12.70
2023-05-11T08:42:10.995Z,12.80
2023-05-11T08:44:39.683Z,12.80
2023-05-11T08:47:21.899Z,12.90
2023-05-11T08:49:52.288Z,12.90
2023-05-11T08:52:20.356Z,12.90
2023-05-11T08:54:48.510Z,13.00
2023-05-11T08:57:18.544Z,13.00
2023-05-11T08:59:47.065Z,13.10
2023-05-11T09:02:17.356Z,13.20
2023-05-11T09:04:48.232Z,13.30
2023-05-11T09:07:17.655Z,13.30
2023-05-11T09:09:46.791Z,13.30
2023-05-11T09:12:15.006Z,13.40
2023-05-11T09:14:44.803Z,13.40
2023-05-11T09:17:12.813Z,13.40
2023-05-11T09:19:57.598Z,13.40
2023-05-11T09:22:26.486Z,13.50
2023-05-11T09:24:55.843Z,13.60
2023-05-11T09:27:25.184Z,13.70
2023-05-11T09:29:55.560Z,13.80
2023-05-11T09:32:23.694Z,13.90
2023-05-11T09:34:51.884Z,14.00
2023-05-11T09:37:20.092Z,14.10
2023-05-11T09:42:21.974Z,14.30
2023-05-11T09:44:49.909Z,14.30
2023-05-11T09:47:20.125Z,14.40
2023-05-11T09:49:48.305Z,14.50
2023-05-11T09:52:17.070Z,14.60
2023-05-11T09:54:46.432Z,14.70
2023-05-11T09:57:24.142Z,14.80
2023-05-11T09:59:52.532Z,14.80
2023-05-11T10:02:23.373Z,14.70
2023-05-11T10:04:51.782Z,14.70
2023-05-11T10:07:26.265Z,14.60
2023-05-11T10:09:54.895Z,14.70
2023-05-11T10:12:23.445Z,14.60
2023-05-11T10:14:52.966Z,14.70
2023-05-11T10:17:22.328Z,14.80
2023-05-11T10:19:50.624Z,14.80
2023-05-11T10:22:18.902Z,14.80
2023-05-11T10:24:47.671Z,14.90
2023-05-11T10:27:15.708Z,15.00
2023-05-11T10:29:43.646Z,15.10
2023-05-11T10:32:12.028Z,15.20
2023-05-11T10:34:42.823Z,15.20
2023-05-11T10:37:11.080Z,15.30
2023-05-11T10:39:39.464Z,15.30
2023-05-11T10:42:15.302Z,15.40
2023-05-11T10:44:50.502Z,15.50
2023-05-11T10:47:42.297Z,15.50
2023-05-11T10:50:19.004Z,15.50
2023-05-11T10:53:05.736Z,15.50
2023-05-11T10:55:38.998Z,15.50
2023-05-11T10:58:09.539Z,15.60
2023-05-11T11:00:58.066Z,15.60
2023-05-11T11:03:26.235Z,15.60
2023-05-11T11:05:55.660Z,15.80
2023-05-11T11:08:23.980Z,15.70
2023-05-11T11:10:51.967Z,15.80
2023-05-11T11:13:22.861Z,15.90
2023-05-11T11:16:09.411Z,15.90
2023-05-11T11:18:37.470Z,16.00
2023-05-11T11:21:07.174Z,16.00
2023-05-11T11:23:50.154Z,16.00
2023-05-11T11:26:20.012Z,16.00
2023-05-11T11:29:02.917Z,16.10
2023-05-11T11:31:31.761Z,16.20
2023-05-11T11:34:01.171Z,16.20
2023-05-11T11:36:47.170Z,16.30
2023-05-11T11:39:16.558Z,16.30
2023-05-11T11:41:44.532Z,16.40
2023-05-11T11:44:21.559Z,16.40
2023-05-11T11:47:09.562Z,16.30
2023-05-11T11:49:37.989Z,16.50
2023-05-11T11:52:06.785Z,16.60
2023-05-11T11:54:39.815Z,16.60
2023-05-11T11:57:22.623Z,16.40
2023-05-11T11:59:50.727Z,16.10
2023-05-11T12:02:18.777Z,16.10
2023-05-11T12:04:53.040Z,16.00
2023-05-11T12:07:21.557Z,16.00
2023-05-11T12:09:53.020Z,16.00
2023-05-11T12:12:21.612Z,16.10
2023-05-11T12:14:50.001Z,16.10
2023-05-11T12:17:25.191Z,16.10
2023-05-11T12:19:53.351Z,16.10
2023-05-11T12:22:24.557Z,16.10
2023-05-11T12:24:57.749Z,16.00
2023-05-11T12:27:27.616Z,16.00
2023-05-11T12:29:57.122Z,15.90
2023-05-11T12:32:29.230Z,15.90
2023-05-11T12:35:01.447Z,16.00
2023-05-11T12:37:30.341Z,16.00
2023-05-11T12:39:59.955Z,15.90
2023-05-11T12:42:28.142Z,15.90
2023-05-11T12:44:57.130Z,15.90
2023-05-11T12:47:25.849Z,15.80
2023-05-11T12:49:53.940Z,15.80
2023-05-11T12:52:24.392Z,15.80
2023-05-11T12:54:53.810Z,15.80
2023-05-11T12:57:26.529Z,15.70
2023-05-11T13:00:11.566Z,15.70
2023-05-11T13:02:46.895Z,15.70
2023-05-11T13:05:15.232Z,15.70
2023-05-11T13:07:44.436Z,15.80
2023-05-11T13:10:13.470Z,15.90
2023-05-11T13:12:52.348Z,16.00
2023-05-11T13:15:20.837Z,16.30
2023-05-11T13:17:50.266Z,16.50
2023-05-11T13:20:19.380Z,16.60
2023-05-11T13:22:47.749Z,16.70
2023-05-11T13:25:16.836Z,16.60
2023-05-11T13:27:45.088Z,16.60
2023-05-11T13:30:14.776Z,16.60
2023-05-11T13:32:42.818Z,16.70
2023-05-11T13:35:11.116Z,16.70
2023-05-11T13:37:39.049Z,16.80
2023-05-11T13:40:08.767Z,16.90
2023-05-11T13:42:36.842Z,17.00
2023-05-11T13:45:05.273Z,17.20
2023-05-11T13:47:35.915Z,17.10
2023-05-11T13:50:04.652Z,16.90
2023-05-11T13:52:32.727Z,16.80
2023-05-11T13:55:00.784Z,16.70
2023-05-11T13:57:28.833Z,16.70
2023-05-11T13:59:56.874Z,16.80
2023-05-11T14:02:24.987Z,16.80
2023-05-11T14:04:54.416Z,16.80
2023-05-11T14:07:27.422Z,16.70
2023-05-11T14:10:00.655Z,16.60
2023-05-11T14:12:28.653Z,16.60
2023-05-11T14:14:56.694Z,16.60
2023-05-11T14:17:24.985Z,16.50
2023-05-11T14:19:54.373Z,16.40
2023-05-11T14:22:22.404Z,16.40
2023-05-11T14:24:50.355Z,16.30
2023-05-11T14:27:19.201Z,16.30
2023-05-11T14:29:47.225Z,16.30
2023-05-11T14:32:15.182Z,16.30
2023-05-11T14:34:43.434Z,16.30
2023-05-11T14:37:13.147Z,16.60
2023-05-11T14:39:41.343Z,16.40
2023-05-11T14:42:09.717Z,16.30
2023-05-11T14:44:37.920Z,16.30
2023-05-11T14:47:06.349Z,16.20
2023-05-11T14:49:34.366Z,16.10
2023-05-11T14:52:02.454Z,16.00
2023-05-11T14:54:32.335Z,16.00
2023-05-11T14:57:00.454Z,15.90
2023-05-11T14:59:28.439Z,15.80
2023-05-11T15:01:56.538Z,15.80
2023-05-11T15:04:24.881Z,15.70
2023-05-11T15:06:53.073Z,15.80
2023-05-11T15:09:21.280Z,15.70
2023-05-11T15:11:51.010Z,15.60
2023-05-11T15:14:20.846Z,15.60
2023-05-11T15:16:48.868Z,15.70
2023-05-11T15:19:17.028Z,15.70
2023-05-11T15:21:45.088Z,15.60
2023-05-11T15:24:13.055Z,15.60
2023-05-11T15:26:41.205Z,15.60
2023-05-11T15:29:10.534Z,15.60
2023-05-11T15:31:38.606Z,15.60
2023-05-11T15:34:06.620Z,15.50
2023-05-11T15:36:34.764Z,15.50
2023-05-11T15:39:02.828Z,15.50
2023-05-11T15:41:30.794Z,15.40
2023-05-11T15:43:58.740Z,15.40
2023-05-11T15:46:28.301Z,15.30
2023-05-11T15:48:59.071Z,15.30
2023-05-11T15:51:28.353Z,15.20
2023-05-11T15:53:56.662Z,15.20
2023-05-11T15:56:24.694Z,15.20
2023-05-11T15:58:52.798Z,15.00
2023-05-11T16:01:21.208Z,15.00
2023-05-11T16:03:50.918Z,15.00
2023-05-11T16:06:19.466Z,14.90
2023-05-11T16:08:47.786Z,14.90
2023-05-11T16:11:15.750Z,14.80
2023-05-11T16:13:43.730Z,14.70
2023-05-11T16:16:11.790Z,14.70
2023-05-11T16:18:40.155Z,14.60
2023-05-11T16:21:09.510Z,14.60
2023-05-11T16:23:37.486Z,14.60
2023-05-11T16:26:05.514Z,14.60
2023-05-11T16:28:34.117Z,14.60
2023-05-11T16:31:02.263Z,14.60
2023-05-11T16:33:30.338Z,14.60
2023-05-11T16:35:58.341Z,14.50
2023-05-11T16:38:27.691Z,14.50
2023-05-11T16:40:56.393Z,14.50
2023-05-11T16:43:24.421Z,14.50
2023-05-11T16:45:52.808Z,14.50
2023-05-11T16:48:21.520Z,14.50
2023-05-11T16:50:49.507Z,14.50
2023-05-11T16:53:17.913Z,14.50
2023-05-11T16:55:47.225Z,14.50
2023-05-11T16:58:15.184Z,14.40
2023-05-11T17:00:43.217Z,14.40
2023-05-11T17:03:11.689Z,14.40
2023-05-11T17:05:39.706Z,14.40
2023-05-11T17:08:07.917Z,14.40
2023-05-11T17:10:36.196Z,14.30
2023-05-11T17:13:05.660Z,14.30
2023-05-11T17:15:34.034Z,14.30
2023-05-11T17:18:02.170Z,14.20
2023-05-11T17:20:30.726Z,14.10
2023-05-11T17:22:58.693Z,14.10
2023-05-11T17:25:26.957Z,14.00
2023-05-11T17:27:54.932Z,14.00
2023-05-11T17:30:32.885Z,13.90
2023-05-11T17:33:08.630Z,13.90
2023-05-11T17:35:36.762Z,13.90
2023-05-11T17:38:06.420Z,13.90
2023-05-11T17:40:34.377Z,13.90
2023-05-11T17:43:02.689Z,13.80
2023-05-11T17:45:32.037Z,13.70
2023-05-11T17:48:00.125Z,13.70
2023-05-11T17:50:28.323Z,13.60
2023-05-11T17:52:56.486Z,13.60
2023-05-11T17:55:24.429Z,13.60
2023-05-11T17:57:52.576Z,13.60
2023-05-11T18:00:21.908Z,13.60
2023-05-11T18:02:51.576Z,13.50
2023-05-11T18:05:19.663Z,13.50
2023-05-11T18:07:48.160Z,13.40
2023-05-11T18:10:16.304Z,13.40
2023-05-11T18:12:44.376Z,13.40
2023-05-11T18:15:14.955Z,13.40
2023-05-11T18:17:42.977Z,13.40
2023-05-11T18:20:12.989Z,13.30
2023-05-11T18:22:40.952Z,13.30
2023-05-11T18:25:09.535Z,13.20
2023-05-11T18:27:38.015Z,13.20
2023-05-11T18:30:06.688Z,13.20
2023-05-11T18:32:34.683Z,13.20
2023-05-11T18:35:03.585Z,13.20
2023-05-11T18:37:35.588Z,13.10
2023-05-11T18:40:06.454Z,13.20
2023-05-11T18:42:34.394Z,13.20
2023-05-11T18:45:02.394Z,13.10
2023-05-11T18:47:30.549Z,13.20
2023-05-11T18:49:58.740Z,13.20
2023-05-11T18:52:27.281Z,13.20
2023-05-11T18:54:56.787Z,13.20
2023-05-11T18:57:24.905Z,13.10
2023-05-11T18:59:53.006Z,13.20
2023-05-11T19:02:20.968Z,13.20
2023-05-11T19:04:49.113Z,13.10
2023-05-11T19:07:19.886Z,13.10
2023-05-11T19:09:48.447Z,13.10
2023-05-11T19:12:19.673Z,13.10
2023-05-11T19:14:47.744Z,13.10
2023-05-11T19:17:15.729Z,13.10
2023-05-11T19:19:43.685Z,13.10
2023-05-11T19:22:11.670Z,13.10
2023-05-11T19:24:39.617Z,13.10
2023-05-11T19:27:08.163Z,13.00
2023-05-11T19:29:37.623Z,13.00
2023-05-11T19:32:06.106Z,13.00
2023-05-11T19:34:34.522Z,13.00
2023-05-11T19:37:02.708Z,13.00
2023-05-11T19:39:30.774Z,13.00
2023-05-11T19:41:59.043Z,13.00
2023-05-11T19:44:27.069Z,13.00
2023-05-11T19:46:56.563Z,13.00
2023-05-11T19:49:24.748Z,13.00
2023-05-11T19:51:52.809Z,13.00
2023-05-11T19:54:20.878Z,13.00
2023-05-11T19:56:49.030Z,13.00
2023-05-11T19:59:17.033Z,13.00
2023-05-11T20:01:45.377Z,13.00
2023-05-11T20:04:15.379Z,13.00
2023-05-11T20:06:43.565Z,13.00
2023-05-11T20:09:11.830Z,13.60
2023-05-11T20:11:39.842Z,13.00
2023-05-11T20:14:07.891Z,13.00
2023-05-11T20:16:35.961Z,13.00
2023-05-11T20:19:04.043Z,13.00
2023-05-11T20:21:35.779Z,13.00
2023-05-11T20:24:03.761Z,13.00
2023-05-11T20:26:31.904Z,13.10
2023-05-11T20:28:59.852Z,13.00
2023-05-11T20:31:27.992Z,13.00
2023-05-11T20:36:27.000Z,13.00
2023-05-11T20:38:56.472Z,13.00
2023-05-11T20:41:24.430Z,13.00
2023-05-11T20:43:53.045Z,13.00
2023-05-11T20:46:21.341Z,13.00
2023-05-11T20:48:51.739Z,13.00
2023-05-11T20:51:23.180Z,12.90
2023-05-11T20:53:51.581Z,13.00
2023-05-11T20:56:21.363Z,13.00
2023-05-11T20:58:49.351Z,13.00
2023-05-11T21:01:17.503Z,13.00
2023-05-11T21:03:45.645Z,13.00
2023-05-11T21:06:13.741Z,13.00
2023-05-11T21:08:41.802Z,13.00
2023-05-11T21:11:09.962Z,13.00
2023-05-11T21:13:39.372Z,13.00
2023-05-11T21:16:08.150Z,12.90
2023-05-11T21:18:36.264Z,12.90
2023-05-11T21:21:05.033Z,12.90
2023-05-11T21:23:33.128Z,12.90
2023-05-11T21:26:01.090Z,12.90
2023-05-11T21:28:29.395Z,12.90
2023-05-11T21:30:58.853Z,12.90
2023-05-11T21:33:26.882Z,12.90
2023-05-11T21:35:54.975Z,12.90
2023-05-11T21:38:23.007Z,12.90
2023-05-11T21:40:54.677Z,12.90
2023-05-11T21:43:22.964Z,13.00
2023-05-11T21:45:51.332Z,12.90
2023-05-11T21:48:20.814Z,13.00
2023-05-11T21:50:52.871Z,13.00
2023-05-11T21:53:20.934Z,13.00
2023-05-11T21:55:48.888Z,13.00
2023-05-11T21:58:17.155Z,13.00
2023-05-11T22:00:45.223Z,12.90
2023-05-11T22:03:13.367Z,13.00
2023-05-11T22:05:42.804Z,13.00
2023-05-11T22:08:15.267Z,13.00
2023-05-11T22:10:44.285Z,13.00
2023-05-11T22:13:12.263Z,13.00
2023-05-11T22:15:40.318Z,13.00
2023-05-11T22:18:08.367Z,13.00
2023-05-11T22:20:36.433Z,13.10
2023-05-11T22:23:05.886Z,13.10
2023-05-11T22:25:33.880Z,13.10
2023-05-11T22:28:01.890Z,13.10
2023-05-11T22:30:29.934Z,13.00
2023-05-11T22:32:58.023Z,13.10
2023-05-11T22:35:26.125Z,13.10
2023-05-11T22:37:54.240Z,13.10
2023-05-11T22:40:23.605Z,13.10
2023-05-11T22:42:51.574Z,13.10
2023-05-11T22:45:19.538Z,13.10
2023-05-11T22:47:47.554Z,13.10
2023-05-11T22:50:15.687Z,13.10
2023-05-11T22:52:43.665Z,13.10
2023-05-11T22:55:11.674Z,13.20
2023-05-11T22:57:41.580Z,13.20
2023-05-11T23:00:10.783Z,13.20
2023-05-11T23:02:39.096Z,13.20
2023-05-11T23:05:07.434Z,13.20
2023-05-11T23:07:35.569Z,13.20
2023-05-11T23:10:03.631Z,13.20
2023-05-11T23:12:31.661Z,13.20
2023-05-11T23:15:00.995Z,13.20
2023-05-11T23:17:29.037Z,13.20
2023-05-11T23:19:57.275Z,13.20
2023-05-11T23:22:25.325Z,13.10
2023-05-11T23:24:56.047Z,13.20
2023-05-11T23:27:24.595Z,13.20
2023-05-11T23:29:52.720Z,13.20
2023-05-11T23:32:22.048Z,13.20
2023-05-11T23:34:50.031Z,13.20
2023-05-11T23:37:18.014Z,13.20
2023-05-11T23:39:46.054Z,13.20
2023-05-11T23:42:17.990Z,13.20
2023-05-11T23:44:46.018Z,14.60
2023-05-11T23:47:14.018Z,13.10
2023-05-11T23:49:43.409Z,13.20
2023-05-11T23:52:11.353Z,13.20
2023-05-11T23:54:39.391Z,13.10
2023-05-11T23:57:07.346Z,13.10
2023-05-11T23:59:35.319Z,13.10
